Time;durP1;ratioP1;P1;durP2;ratioP2;P2;SDS_P1;SDS_P2;PMS_P1;PMS_P2;Temp;Humidity;BMP_temperature;BMP_pressure;BME280_temperature;BME280_humidity;BME280_pressure;Samples;Min_cycle;Max_cycle;Signal;HPM_P1;HPM_P2
2023/05/13 00:01:03;;;;;;;3.22;2.88;;;;;13.10;98647.00;;;;5052955;28;20037;-68
2023/05/13 00:03:31;;;;;;;3.38;3.00;;;;;13.10;98650.00;;;;5053053;28;20037;-68
2023/05/13 00:05:58;;;;;;;2.75;2.55;;;;;13.00;98654.00;;;;5051445;28;20215;-68
2023/05/13 00:08:24;;;;;;;3.28;2.70;;;;;12.90;98651.00;;;;5052938;28;20056;-68
2023/05/13 00:10:51;;;;;;;4.10;2.63;;;;;12.80;98646.00;;;;5052696;28;20041;-68
2023/05/13 00:13:17;;;;;;;3.80;2.95;;;;;12.80;98644.00;;;;5052538;28;20049;-68
2023/05/13 00:15:44;;;;;;;3.13;2.83;;;;;12.80;98635.00;;;;5052578;28;20045;-68
2023/05/13 00:18:11;;;;;;;4.70;3.30;;;;;12.70;98642.00;;;;5051438;28;20045;-68
2023/05/13 00:20:37;;;;;;;4.05;2.63;;;;;12.60;98651.00;;;;5051285;28;20053;-68
2023/05/13 00:23:04;;;;;;;4.85;2.70;;;;;12.60;98651.00;;;;5052445;28;20067;-68
2023/05/13 00:25:30;;;;;;;6.30;3.05;;;;;12.60;98647.00;;;;5052484;28;20052;-68
2023/05/13 00:27:57;;;;;;;3.90;2.67;;;;;12.60;98650.00;;;;5051524;28;20045;-68
2023/05/13 00:30:23;;;;;;;2.97;2.72;;;;;12.60;98643.00;;;;5052297;28;20060;-68
2023/05/13 00:32:50;;;;;;;6.68;4.00;;;;;12.60;98641.00;;;;5053580;28;20502;-68
2023/05/13 00:35:17;;;;;;;3.65;3.28;;;;;12.60;98637.00;;;;5056256;28;20051;-68
2023/05/13 00:37:43;;;;;;;6.00;2.97;;;;;12.50;98632.00;;;;5055023;28;20099;-68
2023/05/13 00:40:24;;;;;;;2.85;2.58;;;;;12.40;98636.00;;;;5054538;28;20494;-68
2023/05/13 00:42:51;;;;;;;7.30;3.33;;;;;12.40;98638.00;;;;5055768;28;20107;-68
2023/05/13 00:45:18;;;;;;;4.53;2.88;;;;;12.40;98635.00;;;;5056114;28;20041;-67
2023/05/13 00:47:47;;;;;;;4.65;3.60;;;;;12.30;98633.00;;;;5038134;28;20132;-67
2023/05/13 00:50:14;;;;;;;6.10;2.95;;;;;12.30;98632.00;;;;5053726;28;20102;-68
2023/05/13 00:52:41;;;;;;;4.82;2.80;;;;;12.20;98636.00;;;;5054487;28;20552;-67
2023/05/13 00:55:09;;;;;;;3.05;2.75;;;;;12.20;98633.00;;;;5055206;28;20045;-67
2023/05/13 00:57:37;;;;;;;3.15;2.78;;;;;12.10;98638.00;;;;5055541;28;20052;-69
2023/05/13 01:00:04;;;;;;;4.53;2.95;;;;;12.10;98634.00;;;;5055664;28;20049;-67
2023/05/13 01:02:44;;;;;;;4.82;3.47;;;;;12.00;98635.00;;;;5058053;28;20055;-67
2023/05/13 01:05:34;;;;;;;3.67;3.08;;;;;12.10;98633.00;;;;5056994;28;20053;-67
2023/05/13 01:08:20;;;;;;;3.90;3.17;;;;;12.10;98634.00;;;;5058692;28;20551;-67
2023/05/13 01:10:52;;;;;;;5.47;3.55;;;;;12.10;98639.00;;;;5040438;28;20529;-68
2023/05/13 01:13:23;;;;;;;3.55;2.63;;;;;12.10;98634.00;;;;5056638;28;20063;-68
2023/05/13 01:16:02;;;;;;;4.18;3.38;;;;;12.10;98643.00;;;;5056821;28;20052;-68
2023/05/13 01:18:39;;;;;;;4.85;3.40;;;;;11.90;98641.00;;;;5056767;28;20072;-68
2023/05/13 01:21:07;;;;;;;4.60;3.38;;;;;11.90;98642.00;;;;5056085;28;20045;-68
2023/05/13 01:23:33;;;;;;;15.93;3.42;;;;;11.90;98642.00;;;;5055045;28;20060;-67
2023/05/13 01:26:02;;;;;;;3.85;3.05;;;;;11.80;98640.00;;;;5055042;28;20053;-67
2023/05/13 01:28:30;;;;;;;5.82;3.20;;;;;11.70;98620.00;;;;5054239;28;20465;-68
2023/05/13 01:30:57;;;;;;;3.85;3.30;;;;;11.70;98634.00;;;;5053983;28;20047;-68
2023/05/13 01:33:25;;;;;;;6.05;2.90;;;;;11.60;98626.00;;;;5055039;28;20045;-67
2023/05/13 01:35:52;;;;;;;5.28;3.47;;;;;11.60;98627.00;;;;5055487;28;20094;-68
2023/05/13 01:38:20;;;;;;;5.75;2.90;;;;;11.60;98622.00;;;;5054732;28;20106;-68
2023/05/13 01:40:52;;;;;;;4.32;2.80;;;;;11.60;98625.00;;;;5054808;28;20052;-68
2023/05/13 01:43:18;;;;;;;4.28;3.40;;;;;11.50;98625.00;;;;5055606;28;20037;-68
2023/05/13 01:45:46;;;;;;;4.70;2.78;;;;;11.50;98628.00;;;;5054644;28;20660;-68
2023/05/13 01:48:13;;;;;;;4.35;2.97;;;;;11.40;98619.00;;;;5053786;28;20067;-68
2023/05/13 01:50:43;;;;;;;5.20;2.75;;;;;11.40;98620.00;;;;5054697;28;20157;-68
2023/05/13 01:53:09;;;;;;;6.50;2.65;;;;;11.50;98614.00;;;;5055295;28;20048;-68
2023/05/13 01:55:37;;;;;;;7.05;2.75;;;;;11.50;98620.00;;;;5056223;28;20052;-68
2023/05/13 01:58:04;;;;;;;6.55;3.05;;;;;11.40;98622.00;;;;5056388;28;20044;-67
2023/05/13 02:00:31;;;;;;;4.15;3.10;;;;;11.20;98623.00;;;;5055716;28;20095;-67
2023/05/13 02:02:57;;;;;;;7.38;3.17;;;;;11.20;98609.00;;;;5055714;28;20040;-68
2023/05/13 02:05:24;;;;;;;5.63;3.83;;;;;11.30;98629.00;;;;5056392;28;20051;-68
2023/05/13 02:07:51;;;;;;;5.70;3.60;;;;;11.40;98628.00;;;;5054513;28;20052;-68
2023/05/13 02:10:18;;;;;;;3.70;3.22;;;;;11.30;98622.00;;;;5055595;28;20045;-68
2023/05/13 02:12:45;;;;;;;6.38;3.65;;;;;11.10;98622.00;;;;5055320;28;20041;-68
2023/05/13 02:15:11;;;;;;;4.05;2.70;;;;;11.10;98629.00;;;;5055054;28;20049;-68
2023/05/13 02:17:38;;;;;;;3.95;3.40;;;;;11.20;98624.00;;;;5055703;28;20041;-68
2023/05/13 02:20:06;;;;;;;4.03;3.15;;;;;11.30;98623.00;;;;5038095;28;20045;-68
2023/05/13 02:22:34;;;;;;;5.10;3.00;;;;;11.30;98626.00;;;;5053753;28;20044;-68
2023/05/13 02:25:02;;;;;;;4.25;2.85;;;;;11.30;98621.00;;;;5053774;28;20119;-68
2023/05/13 02:27:29;;;;;;;5.03;2.63;;;;;11.20;98624.00;;;;5036878;28;20052;-68
2023/05/13 02:29:55;;;;;;;5.18;3.03;;;;;11.20;98631.00;;;;5052461;28;20135;-68
2023/05/13 02:32:22;;;;;;;4.75;3.25;;;;;11.20;98634.00;;;;5036560;28;20079;-68
2023/05/13 02:34:49;;;;;;;4.30;3.33;;;;;11.20;98629.00;;;;5052417;28;20049;-68
2023/05/13 02:37:16;;;;;;;3.45;3.15;;;;;11.00;98626.00;;;;5052802;28;20124;-68
2023/05/13 02:39:51;;;;;;;3.90;3.13;;;;;10.90;98631.00;;;;5052251;28;20497;-68
2023/05/13 02:42:18;;;;;;;3.70;3.05;;;;;10.90;98628.00;;;;5035947;28;20461;-68
2023/05/13 02:44:44;;;;;;;3.05;2.78;;;;;10.90;98629.00;;;;5053660;28;20083;-68
2023/05/13 02:47:14;;;;;;;4.78;3.53;;;;;10.90;98631.00;;;;5052531;28;20048;-67
2023/05/13 02:49:40;;;;;;;3.92;2.80;;;;;10.80;98628.00;;;;5051731;28;20072;-67
2023/05/13 02:52:07;;;;;;;5.60;3.25;;;;;10.80;98629.00;;;;5045605;28;20045;-69
2023/05/13 02:54:35;;;;;;;4.30;2.80;;;;;10.80;98628.00;;;;5045488;28;20083;-69
2023/05/13 02:57:01;;;;;;;4.07;3.13;;;;;10.80;98632.00;;;;5061961;28;20462;-69
2023/05/13 02:59:28;;;;;;;3.80;2.80;;;;;10.80;98634.00;;;;5045051;28;20191;-69
2023/05/13 03:01:55;;;;;;;3.67;2.90;;;;;10.80;98638.00;;;;5061432;28;20125;-68
2023/05/13 03:04:23;;;;;;;3.83;2.88;;;;;10.70;98635.00;;;;5062493;28;20047;-69
2023/05/13 03:06:49;;;;;;;3.15;2.70;;;;;10.70;98631.00;;;;5061582;28;20064;-68
2023/05/13 03:09:16;;;;;;;4.20;3.05;;;;;10.70;98642.00;;;;5058998;28;20110;-70
2023/05/13 03:11:43;;;;;;;4.18;3.30;;;;;10.70;98640.00;;;;5051431;28;20490;-68
2023/05/13 03:14:09;;;;;;;3.65;3.15;;;;;10.50;98643.00;;;;5051400;28;20055;-69
2023/05/13 03:16:37;;;;;;;5.97;2.92;;;;;10.50;98634.00;;;;5051733;28;20098;-69
2023/05/13 03:19:03;;;;;;;4.72;3.47;;;;;10.50;98647.00;;;;5053532;28;20557;-68
2023/05/13 03:21:30;;;;;;;6.10;3.55;;;;;10.60;98637.00;;;;5075969;28;20041;-68
2023/05/13 03:23:57;;;;;;;3.30;3.00;;;;;10.60;98636.00;;;;5075640;28;20056;-69
2023/05/13 03:26:23;;;;;;;5.20;4.10;;;;;10.60;98637.00;;;;5067891;28;20095;-67
2023/05/13 03:28:50;;;;;;;4.60;3.90;;;;;10.50;98652.00;;;;5071995;28;20048;-67
2023/05/13 03:31:16;;;;;;;5.05;4.43;;;;;10.50;98640.00;;;;5055122;28;20049;-67
2023/05/13 03:33:45;;;;;;;5.55;4.53;;;;;10.50;98641.00;;;;5073867;28;20056;-67
2023/05/13 03:36:12;;;;;;;5.32;4.82;;;;;10.50;98644.00;;;;5076610;28;20041;-67
2023/05/13 03:38:39;;;;;;;5.60;4.75;;;;;10.50;98648.00;;;;5077060;28;20048;-67
2023/05/13 03:41:06;;;;;;;5.97;5.03;;;;;10.50;98643.00;;;;5076280;28;20032;-67
2023/05/13 03:43:32;;;;;;;7.63;4.45;;;;;10.50;98641.00;;;;5064177;28;20079;-67
2023/05/13 03:46:02;;;;;;;5.60;4.80;;;;;10.50;98643.00;;;;5051424;28;20235;-66
2023/05/13 03:48:29;;;;;;;5.45;4.28;;;;;10.40;98641.00;;;;5050863;28;20049;-67
2023/05/13 03:50:57;;;;;;;6.35;4.80;;;;;10.30;98637.00;;;;5050618;28;20049;-67
2023/05/13 03:53:24;;;;;;;6.10;4.63;;;;;10.40;98640.00;;;;5050730;28;20094;-67
2023/05/13 03:55:52;;;;;;;5.30;4.55;;;;;10.40;98643.00;;;;5050860;28;20051;-67
2023/05/13 03:58:21;;;;;;;6.43;4.60;;;;;10.40;98645.00;;;;5034260;28;20063;-67
2023/05/13 04:00:48;;;;;;;6.78;4.45;;;;;10.50;98652.00;;;;5050681;28;20053;-67
2023/05/13 04:03:16;;;;;;;5.57;4.60;;;;;10.60;98654.00;;;;5050935;28;20041;-68
2023/05/13 04:05:45;;;;;;;8.50;4.90;;;;;10.60;98646.00;;;;5051983;28;20045;-68
2023/05/13 04:08:11;;;;;;;7.75;5.15;;;;;10.60;98660.00;;;;5055872;28;20053;-68
2023/05/13 04:10:38;;;;;;;5.70;4.03;;;;;10.50;98652.00;;;;5055907;28;20041;-68
2023/05/13 04:13:05;;;;;;;5.07;4.05;;;;;10.50;98656.00;;;;5039125;28;20090;-68
2023/05/13 04:15:32;;;;;;;7.03;5.10;;;;;10.40;98655.00;;;;5055074;28;20501;-67
2023/05/13 04:17:59;;;;;;;4.60;3.50;;;;;10.30;98649.00;;;;5038434;28;20052;-67
2023/05/13 04:20:27;;;;;;;8.02;4.10;;;;;10.30;98654.00;;;;5055733;28;20048;-67
2023/05/13 04:22:54;;;;;;;5.15;4.32;;;;;10.40;98667.00;;;;5038195;28;20041;-67
2023/05/13 04:25:20;;;;;;;6.80;3.90;;;;;10.60;98657.00;;;;5055854;28;20049;-67
2023/05/13 04:27:47;;;;;;;9.52;4.30;;;;;10.60;98661.00;;;;5054661;28;20057;-67
2023/05/13 04:30:22;;;;;;;6.60;3.88;;;;;10.70;98669.00;;;;5039293;28;20045;-67
2023/05/13 04:32:50;;;;;;;6.50;4.15;;;;;10.90;98662.00;;;;5055094;28;20498;-67
2023/05/13 04:35:17;;;;;;;6.13;3.90;;;;;11.00;98659.00;;;;5054661;28;20131;-65
2023/05/13 04:37:48;;;;;;;6.93;3.80;;;;;11.20;98670.00;;;;5038892;28;20087;-67
2023/05/13 04:40:16;;;;;;;6.10;4.30;;;;;11.20;98666.00;;;;5054467;28;20421;-68
2023/05/13 04:42:44;;;;;;;5.85;3.53;;;;;11.30;98674.00;;;;5054350;28;20041;-65
2023/05/13 04:45:11;;;;;;;7.68;4.25;;;;;11.30;98679.00;;;;5059725;28;20041;-69
2023/05/13 04:47:38;;;;;;;5.10;3.80;;;;;11.10;98676.00;;;;5061205;28;20520;-68
2023/05/13 04:50:05;;;;;;;5.80;4.68;;;;;11.00;98679.00;;;;5060297;28;20147;-69
2023/05/13 04:52:32;;;;;;;5.60;3.90;;;;;11.00;98679.00;;;;5043588;28;20095;-70
2023/05/13 04:54:59;;;;;;;8.07;5.05;;;;;11.00;98680.00;;;;5060179;28;20049;-69
2023/05/13 04:57:27;;;;;;;5.80;4.38;;;;;11.00;98684.00;;;;5060304;28;20049;-68
2023/05/13 04:59:53;;;;;;;5.32;4.63;;;;;11.10;98687.00;;;;5060755;28;20072;-69
2023/05/13 05:02:20;;;;;;;6.20;4.20;;;;;11.20;98672.00;;;;5061020;28;20293;-68
2023/05/13 05:04:48;;;;;;;6.13;4.70;;;;;11.30;98684.00;;;;5060075;28;20049;-69
2023/05/13 05:07:15;;;;;;;7.40;4.32;;;;;11.30;98684.00;;;;5061611;28;20113;-68
2023/05/13 05:09:41;;;;;;;6.85;5.40;;;;;11.40;98679.00;;;;5059040;28;20087;-69
2023/05/13 05:12:08;;;;;;;7.25;4.50;;;;;11.30;98690.00;;;;5062645;28;20514;-69
2023/05/13 05:14:38;;;;;;;5.40;4.50;;;;;11.20;98691.00;;;;5047213;28;20064;-68
2023/05/13 05:17:05;;;;;;;6.00;3.97;;;;;11.30;98696.00;;;;5063731;28;20045;-69
2023/05/13 05:19:32;;;;;;;6.22;4.50;;;;;11.40;98700.00;;;;5063650;28;20555;-68
2023/05/13 05:21:59;;;;;;;5.32;4.30;;;;;11.40;98701.00;;;;5063282;28;20055;-69
2023/05/13 05:24:25;;;;;;;8.27;4.30;;;;;11.50;98699.00;;;;5044862;28;20037;-67
2023/05/13 05:26:52;;;;;;;5.35;4.30;;;;;11.50;98694.00;;;;5062547;28;20114;-69
2023/05/13 05:29:18;;;;;;;6.80;5.30;;;;;11.50;98698.00;;;;5061531;28;20456;-69
2023/05/13 05:31:45;;;;;;;6.65;5.43;;;;;11.60;98702.00;;;;5062414;28;20052;-68
2023/05/13 05:34:12;;;;;;;8.38;5.72;;;;;11.70;98708.00;;;;5044193;28;20045;-68
2023/05/13 05:36:40;;;;;;;6.45;5.72;;;;;11.90;98712.00;;;;5061125;28;20045;-68
2023/05/13 05:39:07;;;;;;;9.48;6.35;;;;;12.00;98707.00;;;;5043291;28;20041;-68
2023/05/13 05:41:35;;;;;;;6.60;5.63;;;;;12.00;98708.00;;;;5060840;28;20041;-67
2023/05/13 05:44:02;;;;;;;7.72;6.10;;;;;12.10;98713.00;;;;5042706;28;20049;-68
2023/05/13 05:46:30;;;;;;;14.60;8.32;;;;;12.10;98708.00;;;;5059912;28;20106;-68
2023/05/13 05:48:57;;;;;;;9.52;5.72;;;;;12.20;98710.00;;;;5059451;28;20402;-68
2023/05/13 05:51:24;;;;;;;6.40;5.15;;;;;12.20;98717.00;;;;5059537;28;20045;-68
2023/05/13 05:53:51;;;;;;;8.20;5.85;;;;;12.30;98721.00;;;;5044553;28;20061;-67
2023/05/13 05:56:18;;;;;;;8.45;5.80;;;;;12.40;98716.00;;;;5061105;28;20122;-69
2023/05/13 05:58:45;;;;;;;8.43;5.15;;;;;12.50;98723.00;;;;5043706;28;20625;-68
2023/05/13 06:01:11;;;;;;;7.45;5.57;;;;;12.70;98734.00;;;;5042079;28;20049;-68
2023/05/13 06:03:38;;;;;;;9.00;5.45;;;;;12.90;98732.00;;;;5054980;28;20033;-68
2023/05/13 06:06:05;;;;;;;7.55;5.30;;;;;13.20;98733.00;;;;5055741;28;20447;-68
2023/05/13 06:08:32;;;;;;;11.45;5.65;;;;;13.40;98737.00;;;;5056976;28;20098;-69
2023/05/13 06:10:59;;;;;;;14.73;6.78;;;;;13.50;98740.00;;;;5058134;28;20068;-68
2023/05/13 06:13:25;;;;;;;7.30;4.47;;;;;13.50;98740.00;;;;5056655;28;20072;-68
2023/05/13 06:15:53;;;;;;;8.27;5.07;;;;;13.50;98736.00;;;;5055408;28;20045;-68
2023/05/13 06:18:20;;;;;;;6.20;5.40;;;;;13.50;98737.00;;;;5054856;28;20510;-67
2023/05/13 06:20:46;;;;;;;8.05;5.70;;;;;13.60;98747.00;;;;5055001;28;20052;-68
2023/05/13 06:23:13;;;;;;;7.10;5.72;;;;;13.70;98745.00;;;;5054698;28;20041;-69
2023/05/13 06:25:40;;;;;;;7.25;5.95;;;;;13.80;98745.00;;;;5055921;28;20045;-69
2023/05/13 06:28:09;;;;;;;7.22;5.93;;;;;13.90;98738.00;;;;5055808;28;20056;-68
2023/05/13 06:30:36;;;;;;;10.02;6.00;;;;;13.90;98738.00;;;;5055239;28;20123;-69
2023/05/13 06:33:03;;;;;;;9.57;6.55;;;;;14.00;98744.00;;;;5052974;28;20413;-69
2023/05/13 06:35:30;;;;;;;7.25;6.55;;;;;14.10;98748.00;;;;5036940;28;20044;-69
2023/05/13 06:37:58;;;;;;;9.90;6.65;;;;;14.20;98746.00;;;;5052525;28;20044;-69
2023/05/13 06:40:25;;;;;;;6.80;5.60;;;;;14.30;98741.00;;;;5053030;28;20399;-69
2023/05/13 06:42:52;;;;;;;7.03;6.28;;;;;14.40;98740.00;;;;5052948;28;20072;-70
2023/05/13 06:45:22;;;;;;;6.45;5.32;;;;;14.40;98741.00;;;;5055697;28;20072;-70
2023/05/13 06:47:50;;;;;;;8.07;5.47;;;;;14.50;98741.00;;;;5058295;28;20045;-67
2023/05/13 06:50:17;;;;;;;8.45;5.80;;;;;14.60;98738.00;;;;5057966;28;20116;-69
2023/05/13 06:52:44;;;;;;;6.20;5.60;;;;;14.70;98736.00;;;;5057966;28;20152;-69
2023/05/13 06:55:10;;;;;;;6.78;5.93;;;;;14.80;98735.00;;;;5057593;28;20064;-70
2023/05/13 06:57:38;;;;;;;10.25;5.65;;;;;14.80;98731.00;;;;5055290;28;20045;-69
2023/05/13 07:00:09;;;;;;;8.23;5.78;;;;;14.90;98741.00;;;;5056620;28;20037;-68
2023/05/13 07:02:36;;;;;;;7.28;6.45;;;;;15.00;98725.00;;;;5054034;28;20045;-69
2023/05/13 07:05:03;;;;;;;7.07;5.72;;;;;15.10;98731.00;;;;5055473;28;20041;-69
2023/05/13 07:07:29;;;;;;;7.47;5.10;;;;;15.20;98739.00;;;;5037121;28;20053;-69
2023/05/13 07:09:56;;;;;;;7.70;5.07;;;;;15.20;98729.00;;;;5054266;28;20061;-69
2023/05/13 07:12:23;;;;;;;9.18;5.22;;;;;15.30;98735.00;;;;5054337;28;20058;-69
2023/05/13 07:14:49;;;;;;;9.82;6.18;;;;;15.40;98730.00;;;;5054071;28;20037;-69
2023/05/13 07:17:16;;;;;;;6.13;4.75;;;;;15.50;98743.00;;;;5060520;28;20041;-68
2023/05/13 07:19:43;;;;;;;9.93;5.95;;;;;15.70;98729.00;;;;5053431;28;20091;-69
2023/05/13 07:22:10;;;;;;;8.48;5.00;;;;;15.80;98737.00;;;;5066797;28;20417;-69
2023/05/13 07:24:36;;;;;;;4.88;4.32;;;;;15.80;98733.00;;;;5052893;28;20049;-69
2023/05/13 07:27:03;;;;;;;4.05;3.60;;;;;15.90;98728.00;;;;5052743;28;20440;-67
2023/05/13 07:29:31;;;;;;;3.63;3.17;;;;;15.90;98730.00;;;;5051334;28;20460;-70
2023/05/13 07:32:02;;;;;;;7.07;3.33;;;;;16.00;98728.00;;;;5052724;28;20083;-67
2023/05/13 07:34:28;;;;;;;5.05;3.10;;;;;16.00;98728.00;;;;5052647;28;20099;-67
2023/05/13 07:36:55;;;;;;;2.35;2.15;;;;;16.20;98731.00;;;;5053740;28;20094;-68
2023/05/13 07:39:21;;;;;;;4.45;2.47;;;;;16.20;98728.00;;;;5034558;28;20076;-68
2023/05/13 07:41:48;;;;;;;3.90;2.38;;;;;16.30;98728.00;;;;5051951;28;20045;-68
2023/05/13 07:44:15;;;;;;;2.63;2.00;;;;;16.30;98720.00;;;;5034564;28;20037;-68
2023/05/13 07:46:41;;;;;;;4.55;3.88;;;;;16.40;98725.00;;;;5051428;28;20045;-67
2023/05/13 07:49:08;;;;;;;3.13;2.70;;;;;16.40;98721.00;;;;5052419;28;20045;-69
2023/05/13 07:51:35;;;;;;;6.28;3.33;;;;;16.40;98718.00;;;;5052627;28;20056;-68
2023/05/13 07:54:01;;;;;;;5.25;3.35;;;;;16.60;98720.00;;;;5052635;28;20461;-67
2023/05/13 07:56:29;;;;;;;9.13;3.72;;;;;16.70;98716.00;;;;5051252;28;20052;-68
2023/05/13 07:58:56;;;;;;;16.23;4.80;;;;;16.70;98720.00;;;;5052373;28;20049;-67
2023/05/13 08:01:23;;;;;;;2.83;2.60;;;;;16.70;98713.00;;;;5051143;28;20048;-67
2023/05/13 08:03:49;;;;;;;6.05;2.83;;;;;16.70;98718.00;;;;5050871;28;20067;-69
2023/05/13 08:06:16;;;;;;;2.28;2.08;;;;;16.90;98724.00;;;;5052508;28;20063;-69
2023/05/13 08:08:42;;;;;;;5.32;2.75;;;;;16.90;98713.00;;;;5052233;28;20049;-69
2023/05/13 08:11:09;;;;;;;3.10;2.03;;;;;17.10;98716.00;;;;5054246;28;20159;-69
2023/05/13 08:13:35;;;;;;;4.45;2.15;;;;;17.10;98723.00;;;;5051223;28;20068;-69
2023/05/13 08:16:02;;;;;;;2.60;2.03;;;;;17.20;98725.00;;;;5051029;28;20049;-68
2023/05/13 08:18:29;;;;;;;3.60;1.90;;;;;17.20;98722.00;;;;5052080;28;20047;-68
2023/05/13 08:20:56;;;;;;;3.53;1.98;;;;;17.20;98716.00;;;;5051676;28;20128;-68
2023/05/13 08:23:24;;;;;;;4.75;2.10;;;;;17.30;98720.00;;;;5052114;28;20061;-68
2023/05/13 08:26:06;;;;;;;5.93;2.15;;;;;17.30;98715.00;;;;5052094;28;20049;-68
2023/05/13 08:28:32;;;;;;;3.03;2.13;;;;;17.40;98712.00;;;;5051889;28;20048;-68
2023/05/13 08:31:01;;;;;;;2.17;1.98;;;;;17.40;98723.00;;;;5051596;28;20079;-69
2023/05/13 08:33:28;;;;;;;2.95;2.10;;;;;17.30;98719.00;;;;5051740;28;20405;-68
2023/05/13 08:35:55;;;;;;;4.25;2.15;;;;;17.40;98722.00;;;;5051986;28;20045;-68
2023/05/13 08:38:22;;;;;;;3.05;2.42;;;;;17.40;98724.00;;;;5051100;28;20071;-68
2023/05/13 08:40:48;;;;;;;2.28;2.08;;;;;17.50;98715.00;;;;5052293;28;20048;-67
2023/05/13 08:43:16;;;;;;;3.58;1.95;;;;;17.60;98723.00;;;;5050587;28;20055;-68
2023/05/13 08:45:46;;;;;;;2.22;1.95;;;;;17.70;98727.00;;;;5050672;28;20052;-69
2023/05/13 08:48:15;;;;;;;2.60;2.40;;;;;17.90;98729.00;;;;5052351;28;20065;-68
2023/05/13 08:50:43;;;;;;;2.85;2.17;;;;;18.00;98730.00;;;;5051704;28;20055;-67
2023/05/13 08:53:11;;;;;;;4.47;2.58;;;;;18.10;98730.00;;;;5052949;28;20091;-68
2023/05/13 08:55:39;;;;;;;4.40;2.50;;;;;18.10;98738.00;;;;5056390;28;20037;-68
2023/05/13 08:58:06;;;;;;;4.07;2.35;;;;;18.20;98735.00;;;;5054624;28;20056;-68
2023/05/13 09:00:34;;;;;;;3.42;2.25;;;;;18.20;98736.00;;;;5054625;28;20063;-69
2023/05/13 09:03:01;;;;;;;3.53;2.67;;;;;18.30;98740.00;;;;5053960;28;20399;-67
2023/05/13 09:05:27;;;;;;;3.80;2.30;;;;;18.40;98744.00;;;;5055276;28;20045;-67
2023/05/13 09:07:55;;;;;;;2.35;2.15;;;;;18.50;98744.00;;;;5037498;28;20148;-67
2023/05/13 09:10:21;;;;;;;2.50;2.20;;;;;18.60;98745.00;;;;5054863;28;20059;-67
2023/05/13 09:12:52;;;;;;;2.20;2.00;;;;;18.70;98742.00;;;;5055551;28;20049;-67
2023/05/13 09:15:21;;;;;;;2.45;2.03;;;;;18.80;98747.00;;;;5055114;28;20045;-67
2023/05/13 09:17:51;;;;;;;3.58;2.60;;;;;18.80;98748.00;;;;5055304;28;20120;-67
2023/05/13 09:20:19;;;;;;;5.95;2.33;;;;;18.80;98743.00;;;;5054815;28;20056;-67
2023/05/13 09:22:47;;;;;;;2.83;2.60;;;;;18.80;98741.00;;;;5053729;28;20501;-67
2023/05/13 09:25:15;;;;;;;3.72;2.50;;;;;18.80;98735.00;;;;5054771;28;20045;-67
2023/05/13 09:27:45;;;;;;;2.67;2.40;;;;;18.80;98725.00;;;;5055220;28;20171;-67
2023/05/13 09:30:12;;;;;;;3.13;2.28;;;;;19.00;98735.00;;;;5053634;28;20047;-67
2023/05/13 09:32:41;;;;;;;2.60;2.40;;;;;19.10;98739.00;;;;5056515;28;20055;-67
2023/05/13 09:35:15;;;;;;;2.58;2.38;;;;;18.90;98724.00;;;;5056080;28;20048;-67
2023/05/13 09:37:44;;;;;;;4.57;2.30;;;;;18.90;98724.00;;;;5056015;28;20044;-67
2023/05/13 09:40:12;;;;;;;3.38;2.60;;;;;19.00;98724.00;;;;5056256;28;20049;-68
2023/05/13 09:42:41;;;;;;;2.20;2.00;;;;;19.20;98721.00;;;;5056322;28;20041;-68
2023/05/13 09:45:08;;;;;;;2.35;2.15;;;;;19.30;98724.00;;;;5055956;28;20041;-68
2023/05/13 09:47:35;;;;;;;2.25;1.95;;;;;19.20;98727.00;;;;5056251;28;20490;-68
2023/05/13 09:50:03;;;;;;;2.30;2.10;;;;;19.20;98721.00;;;;5055887;28;20441;-68
2023/05/13 09:52:31;;;;;;;2.13;1.92;;;;;19.30;98722.00;;;;5056237;28;20048;-67
2023/05/13 09:54:58;;;;;;;5.95;2.40;;;;;19.50;98726.00;;;;5055609;28;20482;-68
2023/05/13 09:57:28;;;;;;;2.35;2.15;;;;;19.50;98727.00;;;;5055819;28;20095;-68
2023/05/13 10:00:04;;;;;;;3.10;2.00;;;;;19.70;98728.00;;;;5055339;28;20044;-68
2023/05/13 10:02:37;;;;;;;2.40;1.90;;;;;19.60;98724.00;;;;5054739;28;20075;-68
2023/05/13 10:05:04;;;;;;;2.38;2.10;;;;;19.60;98725.00;;;;5054199;28;20492;-68
2023/05/13 10:07:33;;;;;;;4.28;2.38;;;;;19.70;98729.00;;;;5037053;28;20049;-68
2023/05/13 10:10:01;;;;;;;2.67;2.30;;;;;19.90;98726.00;;;;5055306;28;20049;-68
2023/05/13 10:12:30;;;;;;;5.50;2.28;;;;;20.00;98736.00;;;;5054787;28;20406;-68
2023/05/13 10:14:57;;;;;;;8.15;2.70;;;;;20.10;98736.00;;;;5053364;28;20111;-68
2023/05/13 10:17:24;;;;;;;5.57;2.35;;;;;20.10;98728.00;;;;5054331;28;20104;-68
2023/05/13 10:19:52;;;;;;;5.28;2.97;;;;;20.10;98735.00;;;;5053904;28;20514;-68
2023/05/13 10:22:33;;;;;;;2.67;2.47;;;;;20.00;98735.00;;;;5054131;28;20092;-68
2023/05/13 10:25:01;;;;;;;2.97;2.35;;;;;20.00;98729.00;;;;5036479;28;20041;-68
2023/05/13 10:27:31;;;;;;;4.10;2.20;;;;;19.90;98725.00;;;;5052626;28;20044;-68
2023/05/13 10:30:00;;;;;;;3.75;2.17;;;;;19.90;98732.00;;;;5052130;28;20490;-69
2023/05/13 10:32:29;;;;;;;3.83;2.20;;;;;20.10;98722.00;;;;5053546;28;20049;-68
2023/05/13 10:35:05;;;;;;;6.85;2.65;;;;;20.00;98723.00;;;;5053418;28;20207;-68
2023/05/13 10:38:02;;;;;;;3.22;2.53;;;;;20.00;98716.00;;;;5053417;28;20053;-68
2023/05/13 10:40:53;;;;;;;2.47;2.28;;;;;20.10;98709.00;;;;5052043;28;20041;-68
2023/05/13 10:43:27;;;;;;;4.65;2.50;;;;;20.20;98717.00;;;;5053161;28;20103;-68
2023/05/13 10:45:59;;;;;;;4.07;2.35;;;;;20.30;98715.00;;;;5052383;28;20044;-68
2023/05/13 10:48:36;;;;;;;6.38;2.42;;;;;20.40;98707.00;;;;5035254;28;20057;-68
2023/05/13 10:51:10;;;;;;;2.05;1.92;;;;;20.20;98707.00;;;;5052894;28;20422;-68
2023/05/13 10:53:46;;;;;;;3.92;2.60;;;;;20.30;98706.00;;;;5053162;28;20043;-69
2023/05/13 10:56:14;;;;;;;3.28;2.45;;;;;20.40;98701.00;;;;5053450;28;20053;-68
2023/05/13 10:58:40;;;;;;;5.32;2.70;;;;;20.70;98712.00;;;;5053128;28;20045;-68
2023/05/13 11:01:24;;;;;;;5.28;2.95;;;;;20.60;98710.00;;;;5052279;28;20053;-68
2023/05/13 11:03:52;;;;;;;5.40;3.20;;;;;20.60;98709.00;;;;5053054;28;20506;-68
2023/05/13 11:06:22;;;;;;;4.32;2.70;;;;;20.30;98707.00;;;;5053436;28;20045;-68
2023/05/13 11:08:50;;;;;;;5.70;2.70;;;;;20.40;98711.00;;;;5051313;28;20060;-69
2023/05/13 11:11:21;;;;;;;3.30;3.00;;;;;20.40;98714.00;;;;5053136;28;20045;-69
2023/05/13 11:13:52;;;;;;;2.58;2.38;;;;;20.60;98700.00;;;;5051873;28;20084;-69
2023/05/13 11:16:19;;;;;;;5.95;2.70;;;;;20.60;98700.00;;;;5053348;28;20045;-69
2023/05/13 11:18:46;;;;;;;3.03;2.63;;;;;20.60;98707.00;;;;5067315;28;20053;-68
2023/05/13 11:21:12;;;;;;;2.67;2.45;;;;;20.60;98698.00;;;;5074369;28;20052;-68
2023/05/13 11:23:55;;;;;;;4.32;2.58;;;;;20.80;98705.00;;;;5064337;28;20049;-68
2023/05/13 11:26:22;;;;;;;3.80;2.70;;;;;20.80;98697.00;;;;5055525;28;20049;-64
2023/05/13 11:28:53;;;;;;;5.88;4.25;;;;;20.90;98700.00;;;;5051624;28;20075;-64
2023/05/13 11:31:20;;;;;;;2.80;2.60;;;;;20.80;98696.00;;;;5052528;28;20049;-65
2023/05/13 11:34:08;;;;;;;3.97;2.78;;;;;20.80;98702.00;;;;5052436;28;20049;-65
2023/05/13 11:37:03;;;;;;;3.10;2.80;;;;;20.80;98699.00;;;;5052705;28;20460;-65
2023/05/13 11:39:32;;;;;;;3.50;2.60;;;;;21.10;98685.00;;;;5051394;28;20071;-65
2023/05/13 11:42:00;;;;;;;3.20;2.58;;;;;21.30;98695.00;;;;5051105;28;20466;-65
2023/05/13 11:44:27;;;;;;;3.25;2.63;;;;;21.50;98687.00;;;;5052157;28;20449;-65
2023/05/13 11:46:59;;;;;;;3.72;2.60;;;;;21.70;98694.00;;;;5051064;28;20049;-65
2023/05/13 11:49:45;;;;;;;6.45;2.85;;;;;21.80;98688.00;;;;5050835;28;20079;-66
2023/05/13 11:52:11;;;;;;;3.70;2.72;;;;;21.80;98690.00;;;;5052319;28;20045;-65
2023/05/13 11:54:53;;;;;;;2.78;2.55;;;;;21.70;98687.00;;;;5051039;28;20045;-66
2023/05/13 11:57:22;;;;;;;3.78;2.70;;;;;21.40;98692.00;;;;5052481;28;20041;-66
2023/05/13 12:00:07;;;;;;;3.72;2.90;;;;;21.20;98694.00;;;;5052247;28;20099;-66
2023/05/13 12:02:36;;;;;;;5.28;2.65;;;;;21.00;98692.00;;;;5052226;28;20053;-67
2023/05/13 12:05:05;;;;;;;4.38;2.60;;;;;20.90;98699.00;;;;5051830;28;20037;-68
2023/05/13 12:07:33;;;;;;;8.27;3.33;;;;;20.80;98693.00;;;;5052107;28;20053;-67
2023/05/13 12:10:01;;;;;;;3.42;2.60;;;;;20.60;98693.00;;;;5050575;28;20041;-67
2023/05/13 12:12:29;;;;;;;7.50;5.85;;;;;20.80;98678.00;;;;5050620;28;20482;-67
2023/05/13 12:14:59;;;;;;;4.55;2.92;;;;;21.00;98674.00;;;;5050481;28;20053;-67
2023/05/13 12:17:25;;;;;;;2.70;2.50;;;;;21.20;98671.00;;;;5051862;28;20102;-68
2023/05/13 12:20:11;;;;;;;2.85;2.30;;;;;21.50;98679.00;;;;5051536;28;20073;-68
2023/05/13 12:22:43;;;;;;;2.67;2.47;;;;;21.70;98658.00;;;;5050758;28;20045;-68
2023/05/13 12:25:35;;;;;;;2.50;2.30;;;;;21.90;98658.00;;;;5050688;28;20111;-67